Time;durP1;ratioP1;P1;durP2;ratioP2;P2;SDS_P1;SDS_P2;PMS_P1;PMS_P2;Temp;Humidity;BMP_temperature;BMP_pressure;BME280_temperature;BME280_humidity;BME280_pressure;Samples;Min_cycle;Max_cycle;Signal;HPM_P1;HPM_P2
2022/05/07 00:02:04;;;;;;;;;;;13.00;99.90;;;;;;5089566;28;20040;-82
2022/05/07 00:04:30;;;;;;;15.23;10.43;;;12.90;99.90;;;;;;5088804;28;19919;-81
2022/05/07 00:06:55;;;;;;;16.48;11.85;;;12.90;99.90;;;;;;5068590;28;20076;-81
2022/05/07 00:09:23;;;;;;;13.90;11.05;;;12.90;99.90;;;;;;5072082;28;20080;-80
2022/05/07 00:11:49;;;;;;;18.00;12.45;;;12.90;99.90;;;;;;5106139;27;20052;-81
2022/05/07 00:14:15;;;;;;;17.95;12.98;;;12.80;99.90;;;;;;5072300;28;20048;-81
2022/05/07 00:19:25;;;;;;;16.63;12.13;;;12.80;99.90;;;;;;5074736;28;20063;-81
2022/05/07 00:21:51;;;;;;;18.92;13.02;;;12.80;99.90;;;;;;5071272;28;20044;-82
2022/05/07 00:24:17;;;;;;;20.75;14.02;;;12.80;99.90;;;;;;5072512;28;20087;-81
2022/05/07 00:26:44;;;;;;;21.77;14.60;;;12.80;99.90;;;;;;5088401;28;20047;-81
2022/05/07 00:29:09;;;;;;;;;;;12.80;99.90;;;;;;5089222;28;20063;-80
2022/05/07 00:31:35;;;;;;;24.55;15.30;;;12.80;99.90;;;;;;5071393;28;20259;-81
2022/05/07 00:34:01;;;;;;;19.95;14.45;;;12.80;99.90;;;;;;5089387;28;20055;-81
2022/05/07 00:36:26;;;;;;;21.13;13.90;;;12.80;99.90;;;;;;5088253;28;20055;-81
2022/05/07 00:38:52;;;;;;;19.35;13.38;;;12.80;99.90;;;;;;5089079;28;20044;-82
2022/05/07 00:41:18;;;;;;;20.08;14.00;;;12.80;99.90;;;;;;5071672;28;20477;-81
2022/05/07 00:43:44;;;;;;;21.58;14.60;;;12.80;99.90;;;;;;5087880;28;20123;-82
2022/05/07 00:46:11;;;;;;;22.33;15.52;;;12.70;99.90;;;;;;5055708;28;20080;-81
2022/05/07 00:48:37;;;;;;;22.25;15.23;;;12.80;99.90;;;;;;5071938;28;20048;-80
2022/05/07 00:53:49;;;;;;;19.77;14.70;;;12.80;99.90;;;;;;5074763;28;20105;-81
2022/05/07 00:56:16;;;;;;;24.48;16.40;;;12.80;99.90;;;;;;5122223;28;20058;-80
2022/05/07 00:58:41;;;;;;;26.27;18.42;;;12.80;99.90;;;;;;5087454;28;20044;-82
2022/05/07 01:01:07;;;;;;;22.60;16.40;;;12.90;99.90;;;;;;5088784;28;20051;-82
2022/05/07 01:03:33;;;;;;;25.20;16.83;;;12.90;99.90;;;;;;5088778;28;20055;-82
2022/05/07 01:06:01;;;;;;;23.55;16.17;;;12.90;99.90;;;;;;5074632;28;20055;-84
2022/05/07 01:08:29;;;;;;;24.20;16.35;;;13.00;99.90;;;;;;5072215;28;20052;-81
2022/05/07 01:10:56;;;;;;;22.35;15.90;;;13.00;99.90;;;;;;5055314;28;20088;-81
2022/05/07 01:13:22;;;;;;;24.45;15.50;;;13.00;99.90;;;;;;5072215;28;20378;-82
2022/05/07 01:15:54;;;;;;;22.38;15.00;;;13.00;99.90;;;;;;5072415;28;20485;-81
2022/05/07 01:18:20;;;;;;;25.88;16.85;;;13.10;99.90;;;;;;5077676;28;20048;-81
2022/05/07 01:20:46;;;;;;;23.23;16.48;;;13.30;99.90;;;;;;5126008;27;20397;-81
2022/05/07 01:23:12;;;;;;;26.08;16.75;;;13.10;99.90;;;;;;5075427;28;20052;-81
2022/05/07 01:25:38;;;;;;;23.02;16.13;;;13.20;99.90;;;;;;5091233;28;20507;-81
2022/05/07 01:28:04;;;;;;;25.27;16.52;;;13.20;99.90;;;;;;5092779;28;20051;-81
2022/05/07 01:30:30;;;;;;;22.08;16.10;;;13.30;99.90;;;;;;5090824;28;20517;-81
2022/05/07 01:32:56;;;;;;;22.58;16.17;;;13.30;99.90;;;;;;5092107;28;20063;-81
2022/05/07 01:35:22;;;;;;;23.50;17.40;;;13.30;99.90;;;;;;5055808;28;20052;-81
2022/05/07 01:37:47;;;;;;;22.73;15.95;;;13.20;99.90;;;;;;5071229;28;20129;-81
2022/05/07 01:40:13;;;;;;;19.13;13.65;;;13.20;99.90;;;;;;5088144;28;20060;-81
2022/05/07 01:42:42;;;;;;;19.55;14.10;;;13.10;99.90;;;;;;5071675;28;20056;-80
2022/05/07 01:45:08;;;;;;;204.77;52.47;;;13.10;99.90;;;;;;5105569;28;20046;-81
2022/05/07 01:50:25;;;;;;;20.80;13.27;;;13.00;99.90;;;;;;5071674;28;20147;-84
2022/05/07 01:52:51;;;;;;;137.43;113.68;;;12.90;99.90;;;;;;5116785;27;20523;-81
2022/05/07 01:55:17;;;;;;;18.92;9.32;;;12.90;99.90;;;;;;5107615;28;20123;-81
2022/05/07 01:57:42;;;;;;;1135.88;556.10;;;12.90;99.90;;;;;;5091840;28;20047;-81
2022/05/07 02:00:09;;;;;;;98.47;90.63;;;12.90;99.90;;;;;;5074231;28;20058;-81
2022/05/07 02:02:34;;;;;;;28.00;18.00;;;12.90;99.90;;;;;;5091619;28;20071;-81
2022/05/07 02:05:01;;;;;;;116.55;84.28;;;12.90;99.90;;;;;;5092265;28;20044;-81
2022/05/07 02:07:27;;;;;;;31.80;18.15;;;13.00;99.90;;;;;;5091114;28;20150;-84
2022/05/07 02:09:52;;;;;;;21.48;13.23;;;13.00;99.90;;;;;;5091982;28;20134;-81
2022/05/07 02:12:18;;;;;;;19.60;10.45;;;13.00;99.90;;;;;;5074123;28;20043;-81
2022/05/07 02:14:44;;;;;;;20.67;11.15;;;13.00;99.90;;;;;;5074723;28;20565;-81
2022/05/07 02:17:09;;;;;;;13.93;7.00;;;13.00;99.90;;;;;;5073806;28;20056;-81
2022/05/07 02:19:35;;;;;;;13.20;6.07;;;13.00;99.90;;;;;;5074607;28;20059;-79
2022/05/07 02:22:01;;;;;;;12.35;7.07;;;13.00;99.90;;;;;;5107589;28;20551;-82
2022/05/07 02:24:27;;;;;;;11.45;5.57;;;13.00;99.90;;;;;;5091338;28;20527;-84
2022/05/07 02:26:52;;;;;;;17.02;7.70;;;13.00;99.90;;;;;;5107520;28;20087;-82
2022/05/07 02:29:20;;;;;;;16.23;6.35;;;12.90;99.90;;;;;;5108079;27;20044;-81
2022/05/07 02:32:03;;;;;;;21.17;10.23;;;12.90;99.90;;;;;;5089843;28;20164;-81
2022/05/07 02:34:37;;;;;;;16.95;8.77;;;12.90;99.90;;;;;;5091042;28;20485;-84
2022/05/07 02:37:04;;;;;;;15.00;7.43;;;12.90;99.90;;;;;;5080074;28;20114;-81
2022/05/07 02:39:30;;;;;;;15.23;7.10;;;12.90;99.90;;;;;;5070660;28;20127;-85
2022/05/07 02:44:40;;;;;;;15.25;7.30;;;12.90;99.90;;;;;;5090089;28;20048;-81
2022/05/07 02:47:06;;;;;;;18.90;7.63;;;12.90;99.90;;;;;;5091272;28;20043;-81
2022/05/07 02:49:32;;;;;;;13.77;7.38;;;12.90;99.90;;;;;;5107416;28;20070;-85
2022/05/07 02:51:58;;;;;;;16.02;8.02;;;12.90;99.90;;;;;;5070394;28;20047;-82
2022/05/07 02:54:24;;;;;;;14.82;7.88;;;12.90;99.90;;;;;;5091154;28;20052;-81
2022/05/07 02:56:50;;;;;;;17.77;8.90;;;12.90;99.90;;;;;;5075798;28;20607;-82
2022/05/07 02:59:15;;;;;;;20.08;9.07;;;12.90;99.90;;;;;;5069809;28;20055;-81
2022/05/07 03:01:41;;;;;;;15.90;7.97;;;12.90;99.90;;;;;;5053589;28;20470;-81
2022/05/07 03:04:08;;;;;;;22.63;8.82;;;12.90;99.90;;;;;;5087834;28;20056;-81
2022/05/07 03:06:34;;;;;;;18.17;8.25;;;12.90;99.90;;;;;;5052628;28;20052;-81
2022/05/07 03:09:00;;;;;;;14.77;8.25;;;13.00;99.90;;;;;;5053317;28;20055;-82
2022/05/07 03:11:26;;;;;;;19.45;7.28;;;13.00;99.90;;;;;;5069818;28;20094;-81
2022/05/07 03:13:52;;;;;;;17.88;7.80;;;12.90;99.90;;;;;;5086077;28;20044;-82
2022/05/07 03:16:18;;;;;;;16.20;8.77;;;12.90;99.90;;;;;;5064423;28;20051;-82
2022/05/07 03:18:43;;;;;;;13.60;7.85;;;12.90;99.90;;;;;;5106156;28;20081;-80
2022/05/07 03:21:09;;;;;;;15.73;7.65;;;12.90;99.90;;;;;;5107010;28;20040;-81
2022/05/07 03:23:35;;;;;;;17.77;8.57;;;12.90;99.90;;;;;;5090016;28;20063;-81
2022/05/07 03:26:01;;;;;;;15.70;8.48;;;12.80;99.90;;;;;;5106798;28;20051;-81
2022/05/07 03:28:26;;;;;;;19.00;8.52;;;12.80;99.90;;;;;;5073694;28;20048;-81
2022/05/07 03:30:52;;;;;;;16.65;8.85;;;12.80;99.90;;;;;;5105936;28;20199;-81
2022/05/07 03:33:18;;;;;;;17.40;8.77;;;12.80;99.90;;;;;;5090118;28;20091;-81
2022/05/07 03:35:43;;;;;;;15.90;8.30;;;12.80;99.90;;;;;;5090932;28;20054;-81
2022/05/07 03:38:10;;;;;;;17.08;9.20;;;12.80;99.90;;;;;;5089635;28;20059;-81
2022/05/07 03:40:36;;;;;;;15.85;8.65;;;12.80;99.90;;;;;;5087731;28;20059;-83
2022/05/07 03:43:03;;;;;;;17.33;8.70;;;12.80;99.90;;;;;;5106690;28;20052;-81
2022/05/07 03:45:30;;;;;;;16.13;8.20;;;12.80;99.90;;;;;;5073064;28;20115;-81
2022/05/07 03:47:56;;;;;;;17.58;9.32;;;12.80;99.90;;;;;;5056015;28;20048;-81
2022/05/07 03:50:21;;;;;;;;;;;12.80;99.90;;;;;;5073384;28;20059;-81
2022/05/07 03:55:31;;;;;;;18.80;9.55;;;12.80;99.90;;;;;;5089208;28;20108;-81
2022/05/07 03:57:57;;;;;;;17.70;9.02;;;12.80;99.90;;;;;;5089257;28;20055;-81
2022/05/07 04:00:23;;;;;;;19.92;10.52;;;12.80;99.90;;;;;;5089617;28;20105;-81
2022/05/07 04:02:48;;;;;;;20.17;10.18;;;12.80;99.90;;;;;;5089450;28;20047;-81
2022/05/07 04:05:14;;;;;;;19.67;10.20;;;12.80;99.90;;;;;;5072303;28;20078;-81
2022/05/07 04:07:40;;;;;;;18.05;9.52;;;12.80;99.90;;;;;;5072019;28;20044;-81
2022/05/07 04:10:06;;;;;;;;;;;12.80;99.90;;;;;;5089703;28;20409;-83
2022/05/07 04:12:32;;;;;;;19.02;9.88;;;12.80;99.90;;;;;;5123164;27;19924;-81
2022/05/07 04:15:01;;;;;;;17.42;9.48;;;12.80;99.90;;;;;;5088475;28;20423;-81
2022/05/07 04:17:27;;;;;;;19.75;9.98;;;12.80;99.90;;;;;;5089368;28;20047;-81
2022/05/07 04:19:53;;;;;;;21.55;10.07;;;12.90;99.90;;;;;;5088939;28;20051;-82
2022/05/07 04:22:20;;;;;;;23.90;11.50;;;12.90;99.90;;;;;;5059523;28;20055;-81
2022/05/07 04:24:46;;;;;;;22.42;10.88;;;12.90;99.90;;;;;;5035491;28;20059;-81
2022/05/07 04:27:11;;;;;;;;;;;12.90;99.90;;;;;;5052449;28;20052;-81
2022/05/07 04:29:37;;;;;;;21.85;11.13;;;12.90;99.90;;;;;;5061914;28;19974;-83
2022/05/07 04:32:03;;;;;;;21.90;11.30;;;13.00;99.90;;;;;;5084846;28;20131;-81
2022/05/07 04:34:29;;;;;;;21.33;10.50;;;13.00;99.90;;;;;;5082049;28;20048;-82
2022/05/07 04:36:56;;;;;;;19.90;10.18;;;13.00;99.90;;;;;;5088227;28;20062;-81
2022/05/07 04:39:22;;;;;;;25.90;10.80;;;13.00;99.90;;;;;;5088609;28;20048;-82
2022/05/07 04:41:47;;;;;;;22.85;10.65;;;13.00;99.90;;;;;;5087801;28;20504;-81
2022/05/07 04:44:13;;;;;;;23.05;10.70;;;13.00;99.90;;;;;;5088417;28;20048;-82
2022/05/07 04:46:39;;;;;;;20.27;10.50;;;13.00;99.90;;;;;;5088884;28;20040;-84
2022/05/07 04:49:06;;;;;;;20.50;10.68;;;13.10;99.90;;;;;;5089142;28;20083;-81
2022/05/07 04:51:32;;;;;;;19.42;10.00;;;13.10;99.90;;;;;;5088499;28;20047;-81
2022/05/07 04:53:58;;;;;;;;;;;13.20;99.90;;;;;;5072231;28;20040;-82
2022/05/07 04:56:24;;;;;;;25.45;10.43;;;13.20;99.90;;;;;;5104695;28;20514;-81
2022/05/07 04:58:51;;;;;;;21.77;10.80;;;13.20;99.90;;;;;;5087879;28;20107;-81
2022/05/07 05:01:17;;;;;;;18.52;9.15;;;13.20;99.90;;;;;;5089119;28;20051;-81
2022/05/07 05:03:43;;;;;;;19.02;9.65;;;13.30;99.90;;;;;;5105492;28;20131;-82
2022/05/07 05:06:09;;;;;;;20.60;10.32;;;13.30;99.90;;;;;;5088382;28;20040;-81
2022/05/07 05:08:34;;;;;;;19.15;9.88;;;13.40;99.90;;;;;;5089013;28;20040;-81
2022/05/07 05:11:00;;;;;;;17.98;9.75;;;13.40;99.90;;;;;;5086960;28;20645;-81
2022/05/07 05:13:26;;;;;;;20.38;10.20;;;13.40;99.90;;;;;;5067792;28;20041;-82
2022/05/07 05:15:52;;;;;;;19.33;10.10;;;13.40;99.90;;;;;;5067554;28;20119;-82
2022/05/07 05:18:17;;;;;;;19.75;10.75;;;13.40;99.90;;;;;;5065322;28;20062;-81
2022/05/07 05:20:43;;;;;;;21.27;10.50;;;13.40;99.90;;;;;;5053986;28;20473;-82
2022/05/07 05:23:09;;;;;;;23.88;11.63;;;13.50;99.90;;;;;;5071213;28;20051;-81
2022/05/07 05:25:35;;;;;;;22.65;10.57;;;13.50;99.90;;;;;;5088080;28;20101;-80
2022/05/07 05:28:01;;;;;;;25.15;11.40;;;13.50;99.90;;;;;;5088216;28;20048;-81
2022/05/07 05:30:26;;;;;;;;;;;13.50;99.90;;;;;;5055452;28;20058;-80
2022/05/07 05:32:52;;;;;;;26.02;11.38;;;13.50;99.90;;;;;;5070614;28;19923;-80
2022/05/07 05:35:18;;;;;;;18.52;10.15;;;13.60;99.90;;;;;;5071915;28;20063;-78
2022/05/07 05:37:44;;;;;;;20.30;10.68;;;13.60;99.90;;;;;;5070525;28;20059;-83
2022/05/07 05:40:10;;;;;;;22.30;10.77;;;13.70;99.90;;;;;;5087421;28;20133;-82
2022/05/07 05:42:35;;;;;;;19.65;9.50;;;13.70;99.90;;;;;;5088710;28;20055;-80
2022/05/07 05:45:01;;;;;;;19.48;10.45;;;13.80;99.90;;;;;;5087649;28;20551;-81
2022/05/07 05:47:27;;;;;;;21.63;10.75;;;13.80;99.90;;;;;;5088590;28;20055;-80
2022/05/07 05:49:52;;;;;;;17.60;9.77;;;13.80;99.90;;;;;;5105307;28;20144;-81
2022/05/07 05:52:18;;;;;;;21.92;10.50;;;13.90;99.90;;;;;;5072516;28;20067;-80
2022/05/07 05:54:45;;;;;;;19.27;9.90;;;13.80;99.90;;;;;;5074768;28;20052;-84
2022/05/07 05:57:11;;;;;;;21.05;10.00;;;13.90;99.90;;;;;;5107927;28;20434;-82
2022/05/07 05:59:36;;;;;;;20.20;9.65;;;13.90;99.90;;;;;;5074596;28;20181;-81
2022/05/07 06:02:02;;;;;;;21.55;10.95;;;13.90;99.90;;;;;;5108472;28;20108;-80
2022/05/07 06:04:28;;;;;;;20.77;10.23;;;13.90;99.90;;;;;;5126322;27;20052;-81
2022/05/07 06:06:54;;;;;;;17.92;9.43;;;13.90;99.90;;;;;;5086264;28;20048;-81
2022/05/07 06:09:21;;;;;;;17.77;8.73;;;13.90;99.90;;;;;;5092003;28;20374;-80
2022/05/07 06:11:47;;;;;;;16.40;8.38;;;13.90;99.90;;;;;;5090357;28;20043;-84
2022/05/07 06:14:12;;;;;;;18.70;9.40;;;13.90;99.90;;;;;;5091157;28;20507;-80
2022/05/07 06:16:38;;;;;;;18.17;9.38;;;14.00;99.90;;;;;;5091850;28;20539;-81
2022/05/07 06:19:04;;;;;;;19.70;9.75;;;14.00;99.90;;;;;;5091207;28;20063;-80
2022/05/07 06:21:30;;;;;;;16.67;9.35;;;14.10;99.90;;;;;;5091128;28;20153;-81
2022/05/07 06:23:56;;;;;;;16.52;8.68;;;14.20;99.90;;;;;;5090954;28;20079;-80
2022/05/07 06:29:05;;;;;;;16.80;9.18;;;14.40;99.90;;;;;;5090633;28;20054;-81
2022/05/07 06:31:31;;;;;;;18.35;9.02;;;14.50;99.90;;;;;;5073482;28;20052;-80
2022/05/07 06:33:58;;;;;;;16.75;8.85;;;14.60;99.90;;;;;;5072937;28;20048;-80
2022/05/07 06:36:23;;;;;;;16.10;9.02;;;14.70;99.90;;;;;;5074060;28;20223;-81
2022/05/07 06:38:49;;;;;;;21.13;9.30;;;14.70;99.90;;;;;;5090680;28;20051;-81
2022/05/07 06:41:15;;;;;;;19.95;9.88;;;14.80;99.90;;;;;;5090596;28;20044;-81
2022/05/07 06:43:40;;;;;;;20.58;10.00;;;14.80;99.90;;;;;;5074216;28;20056;-80
2022/05/07 06:46:06;;;;;;;18.52;9.05;;;14.90;99.90;;;;;;5090027;28;20051;-82
2022/05/07 06:48:32;;;;;;;22.95;9.73;;;15.00;99.90;;;;;;5091506;28;20393;-80
2022/05/07 06:50:57;;;;;;;17.98;9.00;;;15.10;99.90;;;;;;5073226;28;20037;-81
2022/05/07 06:53:23;;;;;;;17.63;9.73;;;15.20;99.90;;;;;;5090797;28;20048;-80
2022/05/07 06:55:55;;;;;;;20.23;10.27;;;15.20;99.90;;;;;;5086838;28;20044;-82
2022/05/07 06:58:26;;;;;;;17.83;8.98;;;15.30;99.90;;;;;;5090884;28;20051;-81
2022/05/07 07:00:52;;;;;;;21.88;9.95;;;15.30;99.90;;;;;;5089828;28;20056;-81
2022/05/07 07:03:18;;;;;;;22.08;9.48;;;15.30;99.90;;;;;;5089801;28;20059;-81
2022/05/07 07:05:44;;;;;;;15.88;8.95;;;15.40;99.90;;;;;;5089490;28;20127;-81
2022/05/07 07:08:13;;;;;;;17.90;9.80;;;15.40;99.90;;;;;;5055653;28;20159;-78
2022/05/07 07:10:41;;;;;;;20.33;9.68;;;15.40;99.90;;;;;;5088308;28;20384;-81
2022/05/07 07:13:07;;;;;;;21.17;10.60;;;15.50;99.90;;;;;;5088294;28;20044;-81
2022/05/07 07:15:33;;;;;;;19.35;10.05;;;15.50;99.90;;;;;;5096322;28;20052;-81
2022/05/07 07:17:58;;;;;;;18.52;8.98;;;15.50;99.90;;;;;;5088227;28;20040;-81
2022/05/07 07:20:24;;;;;;;20.95;10.45;;;15.60;99.90;;;;;;5069232;28;20443;-81
2022/05/07 07:22:50;;;;;;;;;;;15.60;99.90;;;;;;5070715;28;20131;-84
2022/05/07 07:25:16;;;;;;;19.13;9.55;;;15.70;99.90;;;;;;5088000;28;19919;-81
2022/05/07 07:27:42;;;;;;;18.30;10.10;;;15.70;99.90;;;;;;5054782;28;20044;-81
2022/05/07 07:30:08;;;;;;;15.35;8.48;;;15.90;99.90;;;;;;5085816;28;20040;-81
2022/05/07 07:32:34;;;;;;;18.92;9.40;;;16.00;99.90;;;;;;5089394;28;20141;-81
2022/05/07 07:34:59;;;;;;;17.23;8.82;;;16.20;99.90;;;;;;5094893;28;20532;-81
2022/05/07 07:37:27;;;;;;;;;;;16.30;99.90;;;;;;5071238;28;20055;-81
2022/05/07 07:39:53;;;;;;;19.50;9.25;;;16.40;99.90;;;;;;5069783;28;19974;-81
2022/05/07 07:42:23;;;;;;;17.05;9.05;;;16.40;99.90;;;;;;5087361;28;20079;-81
2022/05/07 07:47:56;;;;;;;18.73;9.25;;;16.40;99.90;;;;;;5069582;28;20048;-81
2022/05/07 07:50:19;;;;;;;21.23;9.65;;;16.30;99.90;;;;;;5087814;28;20044;-81
2022/05/07 07:52:44;;;;;;;24.35;9.40;;;16.30;99.90;;;;;;5070327;28;20048;-82
2022/05/07 07:55:10;;;;;;;19.25;9.30;;;16.30;99.90;;;;;;5087716;28;20082;-82
2022/05/07 07:57:36;;;;;;;;;;;16.30;99.90;;;;;;5089235;28;20040;-80
2022/05/07 08:00:01;;;;;;;20.85;9.63;;;16.40;99.90;;;;;;5087575;28;19971;-81
2022/05/07 08:02:28;;;;;;;19.95;9.43;;;16.40;99.90;;;;;;5088083;28;20097;-80
2022/05/07 08:04:55;;;;;;;19.13;9.20;;;16.50;99.90;;;;;;5072260;28;20128;-82
2022/05/07 08:12:50;;;;;;;19.98;9.15;;;16.80;99.90;;;;;;5075103;28;20126;-81
2022/05/07 08:15:15;;;;;;;15.93;9.30;;;17.00;99.90;;;;;;5072137;28;20152;-81
2022/05/07 08:17:41;;;;;;;;;;;17.00;99.90;;;;;;5090554;28;20120;-81
2022/05/07 08:20:10;;;;;;;16.70;8.70;;;17.10;99.90;;;;;;5106365;28;19927;-81
2022/05/07 08:22:35;;;;;;;18.63;9.57;;;17.10;99.90;;;;;;5104860;28;20052;-80
2022/05/07 08:25:01;;;;;;;22.08;9.45;;;17.10;99.90;;;;;;5089457;28;20040;-81
2022/05/07 08:27:27;;;;;;;23.45;10.45;;;17.10;99.90;;;;;;5089297;28;20135;-81
2022/05/07 08:29:56;;;;;;;;;;;17.10;99.90;;;;;;5089615;28;20052;-81
2022/05/07 08:32:23;;;;;;;16.63;7.70;;;17.10;99.90;;;;;;5089324;28;19920;-80
2022/05/07 08:34:48;;;;;;;16.88;8.18;;;17.20;99.90;;;;;;5089853;28;20067;-80
2022/05/07 08:37:14;;;;;;;;;;;17.20;99.90;;;;;;5089087;28;20048;-80
2022/05/07 08:39:40;;;;;;;17.13;8.70;;;17.20;99.90;;;;;;5089720;28;19985;-80
2022/05/07 08:42:06;;;;;;;;;;;17.30;99.90;;;;;;5088571;28;20046;-81
2022/05/07 08:44:32;;;;;;;16.85;8.15;;;17.30;99.90;;;;;;5088692;28;19928;-80
2022/05/07 08:46:59;;;;;;;17.90;8.40;;;17.30;99.90;;;;;;5089141;28;20057;-80
2022/05/07 08:49:25;;;;;;;16.48;7.47;;;17.40;99.90;;;;;;5089611;28;20048;-80
2022/05/07 08:51:54;;;;;;;13.57;6.72;;;17.40;99.90;;;;;;5089043;28;20090;-80
2022/05/07 08:54:20;;;;;;;14.68;6.55;;;17.50;99.90;;;;;;5089260;28;20058;-80
2022/05/07 08:56:46;;;;;;;18.10;7.90;;;17.60;99.90;;;;;;5106104;28;20040;-81
2022/05/07 08:59:13;;;;;;;;;;;17.80;99.90;;;;;;5088850;28;20492;-81
2022/05/07 09:01:39;;;;;;;17.10;7.47;;;17.90;99.90;;;;;;5106498;28;19920;-81
2022/05/07 09:04:09;;;;;;;;;;;18.00;99.90;;;;;;5089519;28;20309;-82
2022/05/07 09:06:35;;;;;;;15.00;7.18;;;18.20;99.90;;;;;;5069023;28;20007;-79
2022/05/07 09:09:05;;;;;;;14.32;6.97;;;18.30;99.90;;;;;;5088660;28;20079;-80
2022/05/07 09:11:45;;;;;;;13.23;6.88;;;18.40;99.90;;;;;;5105062;28;20040;-80
2022/05/07 09:14:11;;;;;;;14.05;6.43;;;18.50;99.90;;;;;;5074823;28;20052;-80
2022/05/07 09:16:40;;;;;;;;;;;18.60;99.90;;;;;;5087470;28;20054;-80
2022/05/07 09:19:17;;;;;;;14.90;6.68;;;18.60;99.90;;;;;;5084331;28;19970;-80
2022/05/07 09:21:43;;;;;;;15.20;6.20;;;18.50;99.90;;;;;;5068425;28;20037;-80
2022/05/07 09:24:08;;;;;;;;;;;18.60;99.90;;;;;;5086116;28;20040;-80
2022/05/07 09:26:39;;;;;;;13.50;6.65;;;18.60;99.90;;;;;;5105885;28;19928;-80
2022/05/07 09:29:08;;;;;;;14.20;6.30;;;18.70;99.90;;;;;;5105186;28;20051;-81
2022/05/07 09:31:35;;;;;;;14.63;6.30;;;18.70;99.90;;;;;;5090107;28;20052;-80
2022/05/07 09:36:56;;;;;;;14.30;6.53;;;18.70;99.90;;;;;;5075317;28;20477;-81
2022/05/07 09:39:22;;;;;;;;;;;18.90;99.90;;;;;;5068961;28;20072;-81
2022/05/07 09:41:55;;;;;;;14.93;6.25;;;18.90;99.90;;;;;;5060564;28;19924;-80
2022/05/07 09:44:24;;;;;;;10.68;5.82;;;19.00;99.90;;;;;;5084130;28;20048;-80
2022/05/07 09:46:50;;;;;;;13.13;6.18;;;18.90;99.90;;;;;;5103727;27;20044;-80
2022/05/07 09:49:16;;;;;;;;;;;18.90;99.90;;;;;;5089678;28;20074;-81
2022/05/07 09:51:43;;;;;;;16.27;6.20;;;18.90;99.90;;;;;;5086986;28;19965;-81
2022/05/07 09:59:38;;;;;;;10.68;4.93;;;18.90;99.90;;;;;;5120305;27;20100;-80
2022/05/07 10:02:15;;;;;;;15.00;6.18;;;18.90;99.90;;;;;;5088840;28;20058;-81
2022/05/07 10:05:13;;;;;;;10.93;5.15;;;19.00;99.90;;;;;;5072247;28;20051;-80
2022/05/07 10:07:57;;;;;;;15.32;6.22;;;19.10;99.90;;;;;;5062548;28;20044;-81
2022/05/07 10:10:28;;;;;;;12.48;6.30;;;19.20;99.90;;;;;;5086040;28;20048;-81
2022/05/07 10:12:57;;;;;;;14.52;5.72;;;19.30;99.90;;;;;;5104446;28;20040;-81
2022/05/07 10:15:25;;;;;;;15.77;5.53;;;19.40;99.90;;;;;;5087347;28;20126;-81
2022/05/07 10:18:17;;;;;;;13.70;6.35;;;19.50;99.90;;;;;;5088667;28;20180;-81
2022/05/07 10:20:44;;;;;;;15.02;5.75;;;19.60;99.90;;;;;;5064923;28;20173;-81
2022/05/07 10:23:25;;;;;;;14.50;5.47;;;19.80;99.90;;;;;;5087841;28;20519;-80
2022/05/07 10:25:57;;;;;;;12.55;5.50;;;19.90;99.90;;;;;;5115654;27;20086;-80
2022/05/07 10:28:35;;;;;;;13.82;5.90;;;19.90;99.90;;;;;;5088206;28;20047;-80
2022/05/07 10:31:01;;;;;;;15.60;6.20;;;19.90;99.90;;;;;;5088183;28;20054;-82
2022/05/07 10:33:27;;;;;;;;;;;20.00;99.90;;;;;;5054705;28;20048;-80
2022/05/07 10:35:55;;;;;;;17.08;6.55;;;19.90;99.40;;;;;;5088011;28;19924;-81
2022/05/07 10:38:23;;;;;;;15.10;6.13;;;19.80;99.10;;;;;;5102630;28;20044;-80
2022/05/07 10:40:56;;;;;;;13.38;6.18;;;19.70;99.00;;;;;;5086801;28;20067;-81
2022/05/07 10:43:35;;;;;;;15.25;6.60;;;19.80;99.00;;;;;;5084478;28;20089;-80
2022/05/07 10:46:11;;;;;;;14.48;6.05;;;19.80;98.00;;;;;;5087781;28;20039;-83
2022/05/07 10:49:04;;;;;;;13.05;6.05;;;19.80;98.30;;;;;;5088753;28;20560;-80
2022/05/07 10:51:53;;;;;;;13.30;6.07;;;19.80;97.40;;;;;;5101734;28;20408;-83
2022/05/07 10:54:24;;;;;;;13.35;6.43;;;19.80;97.80;;;;;;5088053;28;20524;-80
2022/05/07 10:56:58;;;;;;;17.60;6.40;;;19.80;97.90;;;;;;5086662;28;20055;-80
2022/05/07 10:59:26;;;;;;;17.27;6.57;;;19.70;96.30;;;;;;5069741;28;20630;-81
2022/05/07 11:02:03;;;;;;;15.95;7.30;;;19.70;97.50;;;;;;5087732;28;20406;-81
2022/05/07 11:04:29;;;;;;;14.80;6.85;;;19.60;97.40;;;;;;5077114;28;20044;-80
2022/05/07 11:06:54;;;;;;;;;;;19.60;97.60;;;;;;5096503;28;20052;-81
2022/05/07 11:09:23;;;;;;;17.08;7.35;;;19.60;97.50;;;;;;5104270;28;19924;-80
2022/05/07 11:11:54;;;;;;;16.95;7.78;;;19.60;97.80;;;;;;5085494;28;20068;-80
2022/05/07 11:14:32;;;;;;;15.07;7.95;;;19.70;97.60;;;;;;5086738;28;20056;-80
2022/05/07 11:16:59;;;;;;;14.43;7.15;;;19.70;97.30;;;;;;5087718;28;20460;-80
2022/05/07 11:19:30;;;;;;;15.18;7.70;;;19.70;97.70;;;;;;5069601;28;20047;-80
2022/05/07 11:21:57;;;;;;;17.85;8.55;;;19.80;98.10;;;;;;5087254;28;20109;-81
2022/05/07 11:24:26;;;;;;;15.88;7.10;;;20.10;97.90;;;;;;5087358;28;20048;-80
2022/05/07 11:26:58;;;;;;;17.55;7.55;;;20.30;98.00;;;;;;5089659;28;20090;-80
2022/05/07 11:29:25;;;;;;;16.48;7.53;;;20.40;97.30;;;;;;5089522;28;20084;-79
2022/05/07 11:32:07;;;;;;;15.15;6.70;;;20.50;97.40;;;;;;5107368;28;20489;-80
2022/05/07 11:34:40;;;;;;;13.75;7.10;;;20.60;97.00;;;;;;5090953;28;20059;-81
2022/05/07 11:37:13;;;;;;;15.80;7.07;;;20.80;97.20;;;;;;5089966;28;20131;-82
2022/05/07 11:39:59;;;;;;;16.63;7.60;;;21.00;96.90;;;;;;5069598;28;20164;-80
2022/05/07 11:42:29;;;;;;;15.23;7.00;;;21.10;95.70;;;;;;5088570;28;20089;-80
2022/05/07 11:47:56;;;;;;;18.30;7.65;;;20.90;94.50;;;;;;5123332;27;20040;-81
2022/05/07 11:50:32;;;;;;;16.52;7.57;;;20.90;95.20;;;;;;5093126;28;20050;-81
2022/05/07 11:53:10;;;;;;;16.58;7.35;;;21.10;95.20;;;;;;5055959;28;20036;-81
2022/05/07 11:55:36;;;;;;;14.68;6.68;;;21.20;94.30;;;;;;5072397;28;20056;-81
2022/05/07 11:58:12;;;;;;;;;;;21.30;94.30;;;;;;5090816;28;20048;-80
2022/05/07 12:00:43;;;;;;;11.45;6.07;;;21.50;93.50;;;;;;5072141;28;19927;-80
2022/05/07 12:03:10;;;;;;;12.10;6.32;;;21.60;94.00;;;;;;5106652;27;20043;-80
2022/05/07 12:05:50;;;;;;;10.63;5.65;;;21.70;93.90;;;;;;5073211;28;20167;-77
2022/05/07 12:08:18;;;;;;;13.25;6.30;;;21.90;92.70;;;;;;5089114;28;20040;-77
2022/05/07 12:10:45;;;;;;;15.52;7.25;;;22.00;92.60;;;;;;5088987;28;20098;-77
2022/05/07 12:13:13;;;;;;;13.05;6.00;;;22.10;92.60;;;;;;5072244;28;20105;-78
2022/05/07 12:18:24;;;;;;;14.07;6.30;;;22.40;91.70;;;;;;5109161;27;20056;-82
2022/05/07 12:20:50;;;;;;;11.75;6.20;;;22.50;91.00;;;;;;5089448;28;20079;-80
2022/05/07 12:31:30;;;;;;;11.55;5.25;;;22.90;88.20;;;;;;5088855;28;20155;-79
2022/05/07 12:33:56;;;;;;;12.27;5.65;;;23.00;87.40;;;;;;5124044;27;20177;-79
2022/05/07 12:36:21;;;;;;;9.45;4.88;;;23.00;85.20;;;;;;5088150;28;20055;-79
2022/05/07 12:38:47;;;;;;;12.40;5.72;;;23.00;84.40;;;;;;5088442;28;20156;-81
2022/05/07 12:41:13;;;;;;;13.45;5.40;;;23.00;84.60;;;;;;5088395;28;20135;-79
2022/05/07 12:43:39;;;;;;;13.90;5.75;;;23.10;84.50;;;;;;5057939;28;20039;-79
2022/05/07 12:46:05;;;;;;;10.07;5.78;;;23.10;84.10;;;;;;5089260;28;20040;-79
2022/05/07 12:48:31;;;;;;;15.02;6.30;;;23.20;83.30;;;;;;5106194;28;20120;-79
2022/05/07 12:50:56;;;;;;;14.07;6.80;;;23.30;83.10;;;;;;5089388;28;20450;-79
2022/05/07 12:53:22;;;;;;;13.32;6.47;;;23.20;81.20;;;;;;5105466;28;20048;-79
2022/05/07 12:55:48;;;;;;;11.48;5.65;;;22.90;79.10;;;;;;5105867;28;20424;-79
2022/05/07 12:58:13;;;;;;;13.82;6.28;;;22.90;79.70;;;;;;5105993;28;20040;-79
2022/05/07 13:00:40;;;;;;;12.98;6.07;;;22.90;79.70;;;;;;5090888;28;20040;-79
2022/05/07 13:03:07;;;;;;;11.60;6.00;;;23.00;79.50;;;;;;5093757;28;20056;-80
2022/05/07 13:05:35;;;;;;;13.68;6.22;;;23.10;79.30;;;;;;5092835;28;20055;-79
2022/05/07 13:08:05;;;;;;;12.63;6.57;;;23.20;78.70;;;;;;5092954;28;20452;-80
2022/05/07 13:10:32;;;;;;;13.05;6.30;;;23.30;78.80;;;;;;5077951;28;20058;-79
2022/05/07 13:12:59;;;;;;;13.27;6.65;;;23.40;79.00;;;;;;5093197;28;20093;-79
2022/05/07 13:15:29;;;;;;;14.43;6.60;;;23.50;79.20;;;;;;5075602;28;20048;-79
2022/05/07 13:17:57;;;;;;;13.75;7.30;;;23.60;79.80;;;;;;5076581;28;20088;-80
2022/05/07 13:20:23;;;;;;;15.15;7.18;;;24.00;80.20;;;;;;5090927;28;20441;-81
2022/05/07 13:22:49;;;;;;;15.77;7.72;;;24.30;79.60;;;;;;5101756;28;20048;-80
2022/05/07 13:25:15;;;;;;;18.70;7.88;;;24.50;79.40;;;;;;5088206;28;20400;-80
2022/05/07 13:27:40;;;;;;;14.88;7.72;;;24.40;78.30;;;;;;5093244;28;20473;-79
2022/05/07 13:30:07;;;;;;;14.85;7.65;;;24.20;77.50;;;;;;5092631;28;20047;-82